sensor_id;sensor_type;location;lat;lon;timestamp;P1;durP1;ratioP1;P2;durP2;ratioP2
36555;SDS011;40859;50.560;7.268;2022-12-15T07:24:20;20.33;;;7.40;;
36555;SDS011;40859;50.560;7.268;2022-12-15T07:26:46;11.48;;;6.90;;
36555;SDS011;40859;50.560;7.268;2022-12-15T07:29:13;14.50;;;7.50;;
36555;SDS011;40859;50.560;7.268;2022-12-15T07:31:40;14.43;;;6.68;;
36555;SDS011;40859;50.560;7.268;2022-12-15T07:34:06;18.70;;;7.70;;
36555;SDS011;40859;50.560;7.268;2022-12-15T07:36:32;17.60;;;8.38;;
36555;SDS011;40859;50.560;7.268;2022-12-15T07:38:59;17.30;;;7.43;;
36555;SDS011;40859;50.560;7.268;2022-12-15T07:41:26;15.05;;;6.72;;
36555;SDS011;40859;50.560;7.268;2022-12-15T07:43:52;21.12;;;7.32;;
36555;SDS011;40859;50.560;7.268;2022-12-15T07:46:18;11.07;;;6.90;;
36555;SDS011;40859;50.560;7.268;2022-12-15T07:48:45;14.60;;;7.53;;
36555;SDS011;40859;50.560;7.268;2022-12-15T07:51:11;13.52;;;6.40;;
36555;SDS011;40859;50.560;7.268;2022-12-15T07:53:37;14.18;;;7.22;;
36555;SDS011;40859;50.560;7.268;2022-12-15T07:56:04;14.38;;;7.37;;
36555;SDS011;40859;50.560;7.268;2022-12-15T07:58:30;17.45;;;7.20;;
36555;SDS011;40859;50.560;7.268;2022-12-15T08:01:01;13.13;;;7.35;;
36555;SDS011;40859;50.560;7.268;2022-12-15T08:03:27;14.95;;;7.10;;
36555;SDS011;40859;50.560;7.268;2022-12-15T08:05:54;14.38;;;6.72;;
36555;SDS011;40859;50.560;7.268;2022-12-15T08:08:21;11.38;;;6.78;;
36555;SDS011;40859;50.560;7.268;2022-12-15T08:10:47;15.68;;;6.35;;
36555;SDS011;40859;50.560;7.268;2022-12-15T08:13:13;12.07;;;7.03;;
36555;SDS011;40859;50.560;7.268;2022-12-15T08:15:41;13.13;;;7.00;;
36555;SDS011;40859;50.560;7.268;2022-12-15T08:18:07;11.63;;;6.87;;
36555;SDS011;40859;50.560;7.268;2022-12-15T08:20:33;12.75;;;7.35;;
36555;SDS011;40859;50.560;7.268;2022-12-15T08:22:59;13.65;;;6.62;;
36555;SDS011;40859;50.560;7.268;2022-12-15T08:25:26;13.25;;;7.15;;
36555;SDS011;40859;50.560;7.268;2022-12-15T08:27:53;21.33;;;5.90;;
36555;SDS011;40859;50.560;7.268;2022-12-15T08:30:19;9.20;;;5.85;;
36555;SDS011;40859;50.560;7.268;2022-12-15T08:32:45;10.93;;;6.47;;
36555;SDS011;40859;50.560;7.268;2022-12-15T08:35:12;11.00;;;6.72;;
36555;SDS011;40859;50.560;7.268;2022-12-15T08:37:39;13.32;;;6.25;;
36555;SDS011;40859;50.560;7.268;2022-12-15T08:40:07;11.57;;;6.28;;
36555;SDS011;40859;50.560;7.268;2022-12-15T08:42:34;11.00;;;6.25;;
36555;SDS011;40859;50.560;7.268;2022-12-15T08:45:00;10.25;;;6.10;;
36555;SDS011;40859;50.560;7.268;2022-12-15T08:47:26;13.55;;;6.50;;
36555;SDS011;40859;50.560;7.268;2022-12-15T08:49:52;11.95;;;6.18;;
36555;SDS011;40859;50.560;7.268;2022-12-15T08:52:20;11.05;;;6.28;;
36555;SDS011;40859;50.560;7.268;2022-12-15T08:54:46;12.57;;;6.00;;
36555;SDS011;40859;50.560;7.268;2022-12-15T08:57:13;9.77;;;6.30;;
36555;SDS011;40859;50.560;7.268;2022-12-15T08:59:39;10.38;;;5.72;;
36555;SDS011;40859;50.560;7.268;2022-12-15T09:02:05;9.57;;;5.78;;
36555;SDS011;40859;50.560;7.268;2022-12-15T09:04:32;11.07;;;5.95;;
36555;SDS011;40859;50.560;7.268;2022-12-15T09:06:58;13.10;;;6.62;;
36555;SDS011;40859;50.560;7.268;2022-12-15T09:09:24;10.90;;;6.20;;
36555;SDS011;40859;50.560;7.268;2022-12-15T09:11:50;10.32;;;5.78;;
36555;SDS011;40859;50.560;7.268;2022-12-15T09:14:17;11.23;;;6.03;;
36555;SDS011;40859;50.560;7.268;2022-12-15T09:16:43;11.18;;;6.40;;
36555;SDS011;40859;50.560;7.268;2022-12-15T09:19:09;13.82;;;6.97;;
36555;SDS011;40859;50.560;7.268;2022-12-15T09:21:35;12.30;;;6.25;;
36555;SDS011;40859;50.560;7.268;2022-12-15T09:24:02;18.30;;;6.55;;
36555;SDS011;40859;50.560;7.268;2022-12-15T09:26:29;22.77;;;8.07;;
36555;SDS011;40859;50.560;7.268;2022-12-15T09:28:56;14.52;;;5.90;;
36555;SDS011;40859;50.560;7.268;2022-12-15T09:31:26;11.27;;;6.60;;
36555;SDS011;40859;50.560;7.268;2022-12-15T09:33:53;10.45;;;6.62;;
36555;SDS011;40859;50.560;7.268;2022-12-15T09:36:20;12.15;;;5.43;;
36555;SDS011;40859;50.560;7.268;2022-12-15T09:38:47;15.57;;;7.53;;
36555;SDS011;40859;50.560;7.268;2022-12-15T09:41:23;11.48;;;6.30;;
36555;SDS011;40859;50.560;7.268;2022-12-15T09:44:11;12.07;;;7.05;;
36555;SDS011;40859;50.560;7.268;2022-12-15T09:50:35;14.07;;;6.03;;
36555;SDS011;40859;50.560;7.268;2022-12-15T09:53:02;10.05;;;5.03;;
36555;SDS011;40859;50.560;7.268;2022-12-15T09:55:30;11.93;;;6.12;;
36555;SDS011;40859;50.560;7.268;2022-12-15T09:58:42;12.65;;;5.72;;
36555;SDS011;40859;50.560;7.268;2022-12-15T10:10:37;10.07;;;6.00;;
36555;SDS011;40859;50.560;7.268;2022-12-15T10:15:55;9.48;;;5.70;;
36555;SDS011;40859;50.560;7.268;2022-12-15T10:18:24;10.10;;;5.90;;
36555;SDS011;40859;50.560;7.268;2022-12-15T10:20:51;12.90;;;5.10;;
36555;SDS011;40859;50.560;7.268;2022-12-15T10:23:18;10.38;;;5.55;;
36555;SDS011;40859;50.560;7.268;2022-12-15T10:25:48;9.27;;;5.15;;
36555;SDS011;40859;50.560;7.268;2022-12-15T10:28:29;9.30;;;5.10;;
36555;SDS011;40859;50.560;7.268;2022-12-15T10:30:57;8.85;;;5.55;;
36555;SDS011;40859;50.560;7.268;2022-12-15T10:33:25;9.75;;;5.57;;
36555;SDS011;40859;50.560;7.268;2022-12-15T10:35:52;9.63;;;5.60;;
36555;SDS011;40859;50.560;7.268;2022-12-15T10:38:37;7.65;;;5.28;;
36555;SDS011;40859;50.560;7.268;2022-12-15T10:41:10;9.63;;;5.75;;
36555;SDS011;40859;50.560;7.268;2022-12-15T10:43:38;17.17;;;6.18;;
36555;SDS011;40859;50.560;7.268;2022-12-15T10:46:24;7.07;;;5.03;;
36555;SDS011;40859;50.560;7.268;2022-12-15T10:48:52;8.07;;;4.93;;
36555;SDS011;40859;50.560;7.268;2022-12-15T10:51:34;8.75;;;5.30;;
36555;SDS011;40859;50.560;7.268;2022-12-15T10:54:10;13.50;;;5.37;;
36555;SDS011;40859;50.560;7.268;2022-12-15T11:02:35;11.52;;;6.40;;
36555;SDS011;40859;50.560;7.268;2022-12-15T11:05:08;8.50;;;5.32;;
36555;SDS011;40859;50.560;7.268;2022-12-15T11:07:41;11.80;;;5.72;;
36555;SDS011;40859;50.560;7.268;2022-12-15T11:19:10;8.85;;;5.82;;
36555;SDS011;40859;50.560;7.268;2022-12-15T11:21:40;11.20;;;5.85;;
36555;SDS011;40859;50.560;7.268;2022-12-15T11:24:10;10.70;;;6.00;;
36555;SDS011;40859;50.560;7.268;2022-12-15T11:26:52;10.35;;;5.85;;
36555;SDS011;40859;50.560;7.268;2022-12-15T11:29:23;8.55;;;5.50;;
36555;SDS011;40859;50.560;7.268;2022-12-15T11:31:51;9.13;;;5.97;;
36555;SDS011;40859;50.560;7.268;2022-12-15T11:34:21;12.55;;;6.72;;
36555;SDS011;40859;50.560;7.268;2022-12-15T11:45:35;13.10;;;5.93;;
36555;SDS011;40859;50.560;7.268;2022-12-15T11:59:53;12.25;;;5.62;;
36555;SDS011;40859;50.560;7.268;2022-12-15T12:02:37;10.57;;;5.55;;
36555;SDS011;40859;50.560;7.268;2022-12-15T12:10:45;7.47;;;5.40;;
36555;SDS011;40859;50.560;7.268;2022-12-15T12:13:35;11.80;;;6.80;;
36555;SDS011;40859;50.560;7.268;2022-12-15T12:16:19;12.70;;;6.00;;
36555;SDS011;40859;50.560;7.268;2022-12-15T12:18:56;9.48;;;5.40;;
36555;SDS011;40859;50.560;7.268;2022-12-15T12:21:26;8.88;;;5.95;;
36555;SDS011;40859;50.560;7.268;2022-12-15T12:24:05;9.15;;;5.70;;
36555;SDS011;40859;50.560;7.268;2022-12-15T12:26:37;8.80;;;5.82;;
36555;SDS011;40859;50.560;7.268;2022-12-15T12:29:07;16.60;;;6.50;;
36555;SDS011;40859;50.560;7.268;2022-12-15T12:31:56;14.75;;;6.40;;
36555;SDS011;40859;50.560;7.268;2022-12-15T12:34:28;13.75;;;6.57;;
36555;SDS011;40859;50.560;7.268;2022-12-15T12:36:56;9.48;;;5.60;;
36555;SDS011;40859;50.560;7.268;2022-12-15T12:39:26;7.62;;;5.25;;
36555;SDS011;40859;50.560;7.268;2022-12-15T12:41:59;12.13;;;6.05;;
36555;SDS011;40859;50.560;7.268;2022-12-15T12:44:30;9.75;;;5.95;;
36555;SDS011;40859;50.560;7.268;2022-12-15T17:17:16;12.57;;;7.25;;
36555;SDS011;40859;50.560;7.268;2022-12-15T17:19:43;14.02;;;7.22;;
36555;SDS011;40859;50.560;7.268;2022-12-15T17:22:10;12.45;;;7.28;;
36555;SDS011;40859;50.560;7.268;2022-12-15T17:24:37;13.98;;;9.00;;
36555;SDS011;40859;50.560;7.268;2022-12-15T17:27:04;10.70;;;7.00;;
36555;SDS011;40859;50.560;7.268;2022-12-15T17:29:31;14.87;;;8.10;;
36555;SDS011;40859;50.560;7.268;2022-12-15T17:31:57;9.80;;;7.32;;
36555;SDS011;40859;50.560;7.268;2022-12-15T17:34:28;11.98;;;7.65;;
36555;SDS011;40859;50.560;7.268;2022-12-15T17:36:58;13.25;;;7.57;;
36555;SDS011;40859;50.560;7.268;2022-12-15T17:39:25;11.40;;;7.65;;
36555;SDS011;40859;50.560;7.268;2022-12-15T17:41:52;10.32;;;6.70;;
36555;SDS011;40859;50.560;7.268;2022-12-15T17:44:19;10.10;;;6.80;;
36555;SDS011;40859;50.560;7.268;2022-12-15T17:46:46;13.32;;;7.20;;
36555;SDS011;40859;50.560;7.268;2022-12-15T17:49:12;12.07;;;7.60;;
36555;SDS011;40859;50.560;7.268;2022-12-15T17:51:38;9.13;;;6.47;;
36555;SDS011;40859;50.560;7.268;2022-12-15T17:54:05;10.93;;;7.05;;
36555;SDS011;40859;50.560;7.268;2022-12-15T17:56:31;11.32;;;7.37;;
36555;SDS011;40859;50.560;7.268;2022-12-15T17:58:57;12.37;;;7.62;;
36555;SDS011;40859;50.560;7.268;2022-12-15T18:01:23;12.93;;;7.80;;
36555;SDS011;40859;50.560;7.268;2022-12-15T18:03:49;12.82;;;8.23;;
36555;SDS011;40859;50.560;7.268;2022-12-15T18:06:15;10.93;;;7.12;;
36555;SDS011;40859;50.560;7.268;2022-12-15T18:08:42;12.82;;;6.82;;
36555;SDS011;40859;50.560;7.268;2022-12-15T18:11:13;9.95;;;7.03;;
36555;SDS011;40859;50.560;7.268;2022-12-15T18:13:41;10.57;;;7.18;;
36555;SDS011;40859;50.560;7.268;2022-12-15T18:16:07;11.10;;;7.40;;
36555;SDS011;40859;50.560;7.268;2022-12-15T18:18:33;11.07;;;6.62;;
36555;SDS011;40859;50.560;7.268;2022-12-15T18:21:00;12.70;;;7.28;;
36555;SDS011;40859;50.560;7.268;2022-12-15T18:23:28;10.50;;;7.12;;
36555;SDS011;40859;50.560;7.268;2022-12-15T18:25:55;11.65;;;7.65;;
36555;SDS011;40859;50.560;7.268;2022-12-15T18:28:26;10.68;;;6.50;;
36555;SDS011;40859;50.560;7.268;2022-12-15T18:34:19;10.15;;;6.45;;
36555;SDS011;40859;50.560;7.268;2022-12-15T18:36:45;11.88;;;8.18;;
36555;SDS011;40859;50.560;7.268;2022-12-15T18:39:18;13.52;;;6.78;;
36555;SDS011;40859;50.560;7.268;2022-12-15T18:41:47;12.43;;;7.95;;
36555;SDS011;40859;50.560;7.268;2022-12-15T18:44:19;9.57;;;6.78;;
36555;SDS011;40859;50.560;7.268;2022-12-15T18:46:46;11.27;;;7.28;;
36555;SDS011;40859;50.560;7.268;2022-12-15T18:49:12;10.68;;;7.07;;
36555;SDS011;40859;50.560;7.268;2022-12-15T18:51:39;10.07;;;7.28;;
36555;SDS011;40859;50.560;7.268;2022-12-15T18:54:05;9.85;;;7.25;;
36555;SDS011;40859;50.560;7.268;2022-12-15T18:56:31;10.57;;;7.10;;
36555;SDS011;40859;50.560;7.268;2022-12-15T18:58:58;11.70;;;7.72;;
36555;SDS011;40859;50.560;7.268;2022-12-15T19:01:24;11.68;;;7.53;;
36555;SDS011;40859;50.560;7.268;2022-12-15T19:03:50;11.55;;;7.62;;
36555;SDS011;40859;50.560;7.268;2022-12-15T19:06:23;10.20;;;7.03;;
36555;SDS011;40859;50.560;7.268;2022-12-15T19:09:00;11.48;;;7.10;;
36555;SDS011;40859;50.560;7.268;2022-12-15T19:11:26;12.10;;;7.57;;
36555;SDS011;40859;50.560;7.268;2022-12-15T19:13:55;9.15;;;6.47;;
36555;SDS011;40859;50.560;7.268;2022-12-15T19:16:22;10.23;;;7.45;;
36555;SDS011;40859;50.560;7.268;2022-12-15T19:18:48;8.95;;;6.85;;
36555;SDS011;40859;50.560;7.268;2022-12-15T19:21:34;10.60;;;6.95;;
36555;SDS011;40859;50.560;7.268;2022-12-15T19:25:01;9.77;;;6.87;;
36555;SDS011;40859;50.560;7.268;2022-12-15T19:27:30;10.07;;;7.18;;
36555;SDS011;40859;50.560;7.268;2022-12-15T19:29:56;11.35;;;7.25;;
36555;SDS011;40859;50.560;7.268;2022-12-15T19:32:22;12.27;;;7.85;;
36555;SDS011;40859;50.560;7.268;2022-12-15T19:34:52;9.23;;;7.37;;
36555;SDS011;40859;50.560;7.268;2022-12-15T19:37:22;12.60;;;7.50;;
36555;SDS011;40859;50.560;7.268;2022-12-15T19:39:50;12.32;;;7.03;;
36555;SDS011;40859;50.560;7.268;2022-12-15T19:42:18;9.75;;;6.28;;
36555;SDS011;40859;50.560;7.268;2022-12-15T19:44:45;12.25;;;7.43;;
36555;SDS011;40859;50.560;7.268;2022-12-15T19:47:12;11.68;;;7.57;;
36555;SDS011;40859;50.560;7.268;2022-12-15T19:49:41;11.85;;;7.55;;
36555;SDS011;40859;50.560;7.268;2022-12-15T19:52:14;11.50;;;7.22;;
36555;SDS011;40859;50.560;7.268;2022-12-15T19:57:13;11.07;;;6.95;;
36555;SDS011;40859;50.560;7.268;2022-12-15T19:59:40;11.10;;;7.95;;
36555;SDS011;40859;50.560;7.268;2022-12-15T20:02:13;12.98;;;7.55;;
36555;SDS011;40859;50.560;7.268;2022-12-15T20:04:40;13.68;;;7.22;;
36555;SDS011;40859;50.560;7.268;2022-12-15T20:07:08;9.13;;;6.60;;
36555;SDS011;40859;50.560;7.268;2022-12-15T20:09:40;11.40;;;7.55;;
36555;SDS011;40859;50.560;7.268;2022-12-15T20:12:08;13.23;;;8.10;;
36555;SDS011;40859;50.560;7.268;2022-12-15T20:14:39;10.55;;;6.78;;
36555;SDS011;40859;50.560;7.268;2022-12-15T20:17:05;12.65;;;7.78;;
36555;SDS011;40859;50.560;7.268;2022-12-15T20:19:32;12.93;;;8.10;;
36555;SDS011;40859;50.560;7.268;2022-12-15T20:21:58;13.77;;;7.70;;
36555;SDS011;40859;50.560;7.268;2022-12-15T20:24:26;12.70;;;8.18;;
36555;SDS011;40859;50.560;7.268;2022-12-15T20:26:53;12.25;;;8.05;;
36555;SDS011;40859;50.560;7.268;2022-12-15T20:29:23;11.70;;;7.28;;
36555;SDS011;40859;50.560;7.268;2022-12-15T20:31:50;12.25;;;8.07;;
36555;SDS011;40859;50.560;7.268;2022-12-15T20:34:17;14.52;;;8.15;;
36555;SDS011;40859;50.560;7.268;2022-12-15T20:36:43;10.45;;;6.95;;
36555;SDS011;40859;50.560;7.268;2022-12-15T20:39:29;12.65;;;7.80;;
36555;SDS011;40859;50.560;7.268;2022-12-15T20:41:55;12.00;;;7.97;;
36555;SDS011;40859;50.560;7.268;2022-12-15T20:44:22;14.07;;;8.10;;
36555;SDS011;40859;50.560;7.268;2022-12-15T20:46:49;12.10;;;7.70;;
36555;SDS011;40859;50.560;7.268;2022-12-15T20:49:19;12.23;;;7.37;;
36555;SDS011;40859;50.560;7.268;2022-12-15T20:51:46;13.02;;;7.45;;
36555;SDS011;40859;50.560;7.268;2022-12-15T20:54:16;12.30;;;7.97;;
36555;SDS011;40859;50.560;7.268;2022-12-15T20:56:43;31.15;;;12.70;;
36555;SDS011;40859;50.560;7.268;2022-12-15T20:59:10;38.63;;;16.00;;
36555;SDS011;40859;50.560;7.268;2022-12-15T21:01:37;47.75;;;19.62;;
36555;SDS011;40859;50.560;7.268;2022-12-15T21:08:26;44.95;;;19.33;;
36555;SDS011;40859;50.560;7.268;2022-12-15T21:10:55;53.87;;;22.35;;
36555;SDS011;40859;50.560;7.268;2022-12-15T21:13:23;45.28;;;19.65;;
36555;SDS011;40859;50.560;7.268;2022-12-15T21:15:50;49.10;;;20.48;;
36555;SDS011;40859;50.560;7.268;2022-12-15T21:18:17;46.80;;;21.42;;
36555;SDS011;40859;50.560;7.268;2022-12-15T21:20:44;41.70;;;18.20;;
36555;SDS011;40859;50.560;7.268;2022-12-15T21:23:15;41.88;;;18.35;;
36555;SDS011;40859;50.560;7.268;2022-12-15T21:25:43;41.35;;;18.00;;
36555;SDS011;40859;50.560;7.268;2022-12-15T21:28:11;41.85;;;17.37;;
36555;SDS011;40859;50.560;7.268;2022-12-15T21:30:37;46.58;;;17.12;;
36555;SDS011;40859;50.560;7.268;2022-12-15T21:33:03;43.00;;;17.35;;
36555;SDS011;40859;50.560;7.268;2022-12-15T21:35:30;36.63;;;15.95;;
36555;SDS011;40859;50.560;7.268;2022-12-15T21:37:56;37.60;;;16.30;;
36555;SDS011;40859;50.560;7.268;2022-12-15T21:40:23;34.05;;;15.73;;
36555;SDS011;40859;50.560;7.268;2022-12-15T21:42:52;31.40;;;17.37;;
